1884 Hurricane NOT_NAMED (1884280N12281)


IBTrACS version v04r00. Visit IBTrACS website for data access.
Please direct all questions to the IBTrACS Q and A forum

Storm track - Intensity - Wind Radii - Intensity Data - Source Data - All data

Summary Information

Storm ID 1884280N12281
Start Oct 5 12Z
Landfall Oct 9 03Z
Max Intensity 100 kt (Oct 13 18Z), 945 mb (Oct 16 00Z)
End Oct 18 18Z
ATCF IDs ,AL041884
Track status Best track data.

Storm track plot

Map of storm track

Intensity plots

Map of storm track

Radial wind information

No radial wind information for this storm


Position and Intensity Table

BASIN ISO_TIME_________ NATURE LAT LON WMO WIND USA WIND MLC WIND MLC PRES
degrees north degrees east kts kts kts mb
NA 1884-10-05 12:00:00 TS 11.50 -79.00 30
NA 15:00:00 TS 11.66 -78.85 30
NA 18:00:00 TS 11.80 -78.70 30
NA 21:00:00 TS 11.90 -78.55 35
NA 1884-10-06 00:00:00 TS 12.00 -78.40 40
NA 03:00:00 TS 12.15 -78.25 45
NA 06:00:00 TS 12.30 -78.10 50
NA 09:00:00 TS 12.37 -77.94 52
NA 12:00:00 TS 12.50 -77.80 55
NA 15:00:00 TS 12.82 -77.69 55
NA 18:00:00 TS 13.20 -77.60 55
NA 21:00:00 TS 13.50 -77.50 55
NA 1884-10-07 00:00:00 TS 14.60 -77.13 40 40 55
NA 03:00:00 TS 15.25 -76.96 40 55
NA 06:00:00 TS 15.70 -76.84 40 40 55
NA 09:00:00 TS 16.05 -76.71 45 55
NA 12:00:00 TS 16.30 -76.60 50 50 55
NA 15:00:00 TS 16.61 -76.46 50 55
NA 18:00:00 TS 16.93 -76.33 50 50 55
NA 21:00:00 TS 17.22 -76.28 55 55
NA 1884-10-08 00:00:00 TS 17.50 -76.23 60 60 55
NA 03:00:00 TS 17.78 -76.14 60 55
NA 06:00:00 TS 18.07 -76.03 60 60 55
NA 09:00:00 TS 18.38 -75.95 65 57
NA 12:00:00 TS 18.70 -75.87 70 70 60
NA 15:00:00 TS 18.99 -75.78 70 60
NA 18:00:00 TS 19.27 -75.70 70 70 60
NA 21:00:00 TS 19.52 -75.63 70 62
NA 1884-10-09 00:00:00 TS 19.77 -75.57 70 70 65
NA 03:00:00 TS 20.02 -75.49 65 65
NA 06:00:00 TS 20.27 -75.43 60 60 65
NA 09:00:00 TS 20.47 -75.43 55 60
NA 12:00:00 TS 20.67 -75.43 50 50 55
NA 15:00:00 TS 20.88 -75.41 50 57
NA 18:00:00 TS 21.10 -75.37 50 50 60
NA 21:00:00 TS 21.35 -75.33 50 62
NA 1884-10-10 00:00:00 TS 21.60 -75.30 50 50 65
NA 03:00:00 TS 21.82 -75.26 50 67
NA 06:00:00 TS 22.03 -75.23 50 50 70
NA 09:00:00 TS 22.26 -75.23 50 72
NA 12:00:00 TS 22.47 -75.23 50 50 75
NA 15:00:00 TS 22.62 -75.25 50 75
NA 18:00:00 TS 22.73 -75.27 50 50 75
NA 21:00:00 TS 22.85 -75.29 55 75
NA 1884-10-11 00:00:00 TS 22.93 -75.30 60 60 75
NA 03:00:00 TS 22.98 -75.30 60 75
NA 06:00:00 TS 23.03 -75.30 60 60 75
NA 09:00:00 TS 23.12 -75.32 65 75
NA 12:00:00 TS 23.23 -75.33 70 70 75
NA 15:00:00 TS 23.35 -75.34 70 75
NA 18:00:00 TS 23.47 -75.33 70 70 75
NA 21:00:00 TS 23.57 -75.33 70 75
NA 1884-10-12 00:00:00 TS 23.67 -75.33 70 70 75
NA 03:00:00 TS 23.79 -75.35 70 75
NA 06:00:00 TS 23.90 -75.37 70 70 75
NA 09:00:00 TS 23.98 -75.39 70 75
NA 12:00:00 TS 24.07 -75.40 70 70 75
NA 15:00:00 TS 24.19 -75.40 70 75
NA 18:00:00 TS 24.33 -75.40 70 70 75
NA 21:00:00 TS 24.49 -75.41 75 77
NA 1884-10-13 00:00:00 TS 24.67 -75.43 80 80 80
NA 03:00:00 TS 24.88 -75.46 80 80
NA 06:00:00 TS 25.10 -75.47 80 80 80
NA 09:00:00 TS 25.32 -75.44 80 85
NA 12:00:00 TS 25.50 -75.40 80 80 90
NA 15:00:00 TS 25.61 -75.36 80 95
NA 18:00:00 TS 25.67 -75.30 80 80 100
NA 21:00:00 TS 25.72 -75.22 85 100
NA 1884-10-14 00:00:00 TS 25.77 -75.10 90 90 100
NA 03:00:00 TS 25.82 -74.96 90 100
NA 06:00:00 TS 25.87 -74.77 90 90 100
NA 09:00:00 TS 25.87 -74.49 90 100
NA 12:00:00 TS 25.87 -74.17 90 90 100
NA 15:00:00 TS 25.88 -73.89 90 100
NA 18:00:00 TS 25.93 -73.53 90 90 100
NA 21:00:00 TS 26.04 -72.97 85 100
NA 1884-10-15 00:00:00 TS 26.17 -72.37 80 80 100
NA 03:00:00 TS 26.26 -71.93 80 100
NA 06:00:00 TS 26.37 -71.50 80 80 100
NA 09:00:00 TS 26.50 -70.96 80 100
NA 12:00:00 TS 26.63 -70.40 80 80 100 982
NA 15:00:00 TS 26.76 -69.93 80 100 972
NA 18:00:00 TS 26.90 -69.47 80 80 100 963
NA 21:00:00 TS 27.05 -68.96 75 100 954
NA 1884-10-16 00:00:00 TS 27.20 -68.43 70 70 100 945
NA 03:00:00 TS 27.31 -67.93 70 100
NA 06:00:00 TS 27.40 -67.43 70 70 100
NA 09:00:00 TS 27.48 -66.96 70 92
NA 12:00:00 TS 27.60 -66.43 70 70 85
NA 15:00:00 TS 27.80 -65.82 70 75
NA 18:00:00 TS 28.03 -65.13 70 70 65
NA 21:00:00 TS 28.26 -64.45 65 62
NA 1884-10-17 00:00:00 TS 28.50 -63.63 60 60 60
NA 03:00:00 TS 28.77 -62.52 60 60
NA 06:00:00 TS 29.03 -61.37 60 60 60
NA 09:00:00 TS 29.23 -60.45 60 60
NA 12:00:00 TS 29.54 -59.46 60 60 60
NA 15:00:00 TS 30.12 -58.30 60 60
NA 18:00:00 MX 31.10 -57.00 60 60 60
NA 21:00:00 ET 32.84 -55.45 60
NA 1884-10-18 00:00:00 ET 33.80 -54.50 60
NA 03:00:00 ET 35.04 -53.79 60
NA 06:00:00 ET 36.40 -53.20 60
NA 09:00:00 ET 37.70 -52.59 60
NA 12:00:00 ET 39.00 -52.00 60
NA 15:00:00 ET 40.30 -51.41 60
NA 18:00:00 ET 41.60 -50.80 60

Source Information

Agency Information
USA hurdat2-1851-2018-051019.txt:Line=4901:UNNAMED
TOKYO
CMA
HKO
NEWDELHI
REUNION
BOM
NADI
WELLINGTON
DS824
TD9636
TD9635
NEUMANN
MLC

All available IBTrACS Data

SEASON BASIN SUBBASIN ISO_TIME_________ NATURE LAT LON WMO WIND WMO AGENCY DIST2LAND LANDFALL IFLAG USA AGENCY USA ATCF_ID USA LAT USA LON USA STATUS USA WIND USA SSHS MLC LAT MLC LON MLC CLASS MLC WIND MLC PRES STORM SPEED STORM DIR
Year degrees north degrees east kts km km degrees north degrees east kts 1 degrees north degrees east kts mb kts degrees
1884 NA CS 1884-10-05 12:00:00 TS 11.50 -79.00 224 224 _____________O -1 11.50 -79.00 TD 30 4 42
1884 NA CS 15:00:00 TS 11.66 -78.85 247 247 _____________P -1 11.66 -78.85 TD 30 4 44
1884 NA CS 18:00:00 TS 11.80 -78.70 261 261 _____________O -1 11.80 -78.70 TD 30 4 51
1884 NA CS 21:00:00 TS 11.90 -78.55 276 276 _____________P -1 11.90 -78.55 TD 35 4 56
1884 NA CS 1884-10-06 00:00:00 TS 12.00 -78.40 290 290 _____________O -1 12.00 -78.40 TS 40 4 50
1884 NA CS 03:00:00 TS 12.15 -78.25 304 304 _____________P -1 12.15 -78.25 TS 45 4 44
1884 NA CS 06:00:00 TS 12.30 -78.10 332 332 _____________O -1 12.30 -78.10 TS 50 4 54
1884 NA CS 09:00:00 TS 12.37 -77.94 330 321 _____________P -1 12.37 -77.94 TS 52 4 56
1884 NA CS 12:00:00 TS 12.50 -77.80 328 328 _____________O -1 12.50 -77.80 TS 55 5 28
1884 NA CS 15:00:00 TS 12.82 -77.69 343 343 _____________P -1 12.82 -77.69 TS 55 7 15
1884 NA CS 18:00:00 TS 13.20 -77.60 367 367 _____________O -1 13.20 -77.60 TS 55 7 15
1884 NA CS 21:00:00 TS 13.50 -77.50 385 358 _____________P -1 13.50 -77.50 TS 55 15 18
1884 NA CS 1884-10-07 00:00:00 TS 14.60 -77.13 40 hurdat_atl 347 280 O____________O hurdat_atl AL041884 16.20 -76.60 TS 40 0 13.80 -77.40 TS 55 18 17
1884 NA CS 03:00:00 TS 15.25 -76.96 280 226 P____________P AL041884 16.35 -76.62 TS 40 0 14.15 -77.30 TS 55 11 14
1884 NA CS 06:00:00 TS 15.70 -76.84 40 hurdat_atl 227 197 O____________O hurdat_atl AL041884 16.50 -76.60 TS 40 0 14.50 -77.20 TS 55 8 16
1884 NA CS 09:00:00 TS 16.05 -76.71 186 169 P____________P AL041884 16.68 -76.52 TS 45 0 14.80 -77.10 TS 55 6 21
1884 NA CS 12:00:00 TS 16.30 -76.60 50 hurdat_atl 169 143 O____________O hurdat_atl AL041884 16.90 -76.40 TS 50 0 15.10 -77.00 TS 55 6 24
1884 NA CS 15:00:00 TS 16.61 -76.46 143 111 P____________P AL041884 17.19 -76.24 TS 50 0 15.44 -76.89 TS 55 7 22
1884 NA CS 18:00:00 TS 16.93 -76.33 50 hurdat_atl 111 78 O____________O hurdat_atl AL041884 17.50 -76.10 TS 50 0 15.80 -76.80 TS 55 6 16
1884 NA CS 21:00:00 TS 17.22 -76.28 78 44 P____________P AL041884 17.76 -76.04 TS 55 0 16.15 -76.75 TS 55 6 10
1884 NA CS 1884-10-08 00:00:00 TS 17.50 -76.23 60 hurdat_atl 44 15 O____________O hurdat_atl AL041884 18.00 -76.00 TS 60 0 16.50 -76.70 TS 55 6 13
1884 NA CS 03:00:00 TS 17.78 -76.14 15 10 P____________P AL041884 18.24 -75.91 TS 60 0 16.85 -76.60 TS 55 6 18
1884 NA CS 06:00:00 TS 18.07 -76.03 60 hurdat_atl 30 30 O____________O hurdat_atl AL041884 18.50 -75.80 TS 60 0 17.20 -76.50 TS 55 6 17
1884 NA CS 09:00:00 TS 18.38 -75.95 47 47 P____________P AL041884 18.80 -75.69 TS 65 1 17.55 -76.46 TS 57 7 14
1884 NA CS 12:00:00 TS 18.70 -75.87 70 hurdat_atl 70 70 O____________O hurdat_atl AL041884 19.10 -75.60 HU 70 1 17.90 -76.40 TS 60 6 15
1884 NA CS 15:00:00 TS 18.99 -75.78 102 67 P____________P AL041884 19.36 -75.54 HU 70 1 18.25 -76.26 TS 60 6 16
1884 NA CS 18:00:00 TS 19.27 -75.70 70 hurdat_atl 67 44 O____________O hurdat_atl AL041884 19.60 -75.50 HU 70 1 18.60 -76.10 TS 60 6 15
1884 NA CS 21:00:00 TS 19.52 -75.63 44 11 P____________P AL041884 19.81 -75.45 HU 70 1 18.95 -75.99 TS 62 5 14
1884 NA CS 1884-10-09 00:00:00 TS 19.77 -75.57 70 hurdat_atl 11 0 O____________O hurdat_atl AL041884 20.00 -75.40 HU 70 1 19.30 -75.90 HU 65 5 14
1884 NA NA 03:00:00 TS 20.02 -75.49 0 0 P____________P AL041884 20.21 -75.34 HU 65 1 19.66 -75.79 HU 65 5 14
1884 NA NA 06:00:00 TS 20.27 -75.43 60 hurdat_atl 0 0 O____________O hurdat_atl AL041884 20.40 -75.30 TS 60 0 20.00 -75.70 HU 65 5 7
1884 NA NA 09:00:00 TS 20.47 -75.43 0 0 P____________P AL041884 20.56 -75.30 TS 55 0 20.30 -75.68 HU 60 4 0
1884 NA NA 12:00:00 TS 20.67 -75.43 50 hurdat_atl 11 11 O____________O hurdat_atl AL041884 20.70 -75.30 TS 50 0 20.60 -75.70 TS 55 4 0
1884 NA NA 15:00:00 TS 20.88 -75.41 23 20 P____________P AL041884 20.84 -75.26 TS 50 0 20.94 -75.70 TS 57 4 7
1884 NA NA 18:00:00 TS 21.10 -75.37 50 hurdat_atl 23 23 O____________O hurdat_atl AL041884 21.00 -75.20 TS 50 0 21.30 -75.70 TS 60 5 9
1884 NA NA 21:00:00 TS 21.35 -75.33 54 45 P____________P AL041884 21.20 -75.15 TS 50 0 21.65 -75.70 TS 62 5 7
1884 NA NA 1884-10-10 00:00:00 TS 21.60 -75.30 50 hurdat_atl 73 73 O____________O hurdat_atl AL041884 21.40 -75.10 TS 50 0 22.00 -75.70 HU 65 5 8
1884 NA NA 03:00:00 TS 21.82 -75.26 94 94 P____________P AL041884 21.56 -75.04 TS 50 0 22.35 -75.70 HU 67 4 7
1884 NA NA 06:00:00 TS 22.03 -75.23 50 hurdat_atl 119 119 O____________O hurdat_atl AL041884 21.70 -75.00 TS 50 0 22.70 -75.70 HU 70 4 5
1884 NA NA 09:00:00 TS 22.26 -75.23 151 151 P____________P AL041884 21.86 -74.99 TS 50 0 23.07 -75.69 HU 72 4 1
1884 NA NA 12:00:00 TS 22.47 -75.23 50 hurdat_atl 172 172 O____________O hurdat_atl AL041884 22.00 -75.00 TS 50 0 23.40 -75.70 HU 75 4 356
1884 NA NA 15:00:00 TS 22.62 -75.25 183 181 P____________P AL041884 22.11 -75.00 TS 50 0 23.64 -75.74 HU 75 3 354
1884 NA NA 18:00:00 TS 22.73 -75.27 50 hurdat_atl 191 191 O____________O hurdat_atl AL041884 22.20 -75.00 TS 50 0 23.80 -75.80 HU 75 2 352
1884 NA NA 21:00:00 TS 22.85 -75.29 201 201 P____________P AL041884 22.31 -75.00 TS 55 0 23.92 -75.86 HU 75 2 347
1884 NA NA 1884-10-11 00:00:00 TS 22.93 -75.30 60 hurdat_atl 211 211 O____________O hurdat_atl AL041884 22.40 -75.00 TS 60 0 24.00 -75.90 HU 75 1 0
1884 NA NA 03:00:00 TS 22.98 -75.30 221 221 P____________P AL041884 22.45 -75.00 TS 60 0 24.05 -75.90 HU 75 1 0
1884 NA NA 06:00:00 TS 23.03 -75.30 60 hurdat_atl 221 221 O____________O hurdat_atl AL041884 22.50 -75.00 TS 60 0 24.10 -75.90 HU 75 1 349
1884 NA NA 09:00:00 TS 23.12 -75.32 231 231 P____________P AL041884 22.59 -75.00 TS 65 1 24.20 -75.95 HU 75 2 347
1884 NA NA 12:00:00 TS 23.23 -75.33 70 hurdat_atl 242 242 O____________O hurdat_atl AL041884 22.70 -75.00 HU 70 1 24.30 -76.00 HU 75 2 356
1884 NA NA 15:00:00 TS 23.35 -75.34 262 252 P____________P AL041884 22.85 -75.00 HU 70 1 24.35 -76.01 HU 75 2 5
1884 NA NA 18:00:00 TS 23.47 -75.33 70 hurdat_atl 268 263 O____________O hurdat_atl AL041884 23.00 -75.00 HU 70 1 24.40 -76.00 HU 75 2 1
1884 NA NA 21:00:00 TS 23.57 -75.33 263 259 P____________P AL041884 23.10 -75.00 HU 70 1 24.50 -75.99 HU 75 2 8
1884 NA NA 1884-10-12 00:00:00 TS 23.67 -75.33 70 hurdat_atl 259 255 O____________O hurdat_atl AL041884 23.20 -75.00 HU 70 1 24.60 -76.00 HU 75 2 354
1884 NA NA 03:00:00 TS 23.79 -75.35 255 242 P____________P AL041884 23.35 -75.00 HU 70 1 24.66 -76.04 HU 75 2 349
1884 NA NA 06:00:00 TS 23.90 -75.37 70 hurdat_atl 242 239 O____________O hurdat_atl AL041884 23.50 -75.00 HU 70 1 24.70 -76.10 HU 75 2 350
1884 NA NA 09:00:00 TS 23.98 -75.39 239 237 P____________P AL041884 23.60 -75.00 HU 70 1 24.74 -76.16 HU 75 2 345
1884 NA NA 12:00:00 TS 24.07 -75.40 70 hurdat_atl 237 235 O____________O hurdat_atl AL041884 23.70 -75.00 HU 70 1 24.80 -76.20 HU 75 2 0
1884 NA NA 15:00:00 TS 24.19 -75.40 235 233 P____________P AL041884 23.83 -75.00 HU 70 1 24.89 -76.20 HU 75 3 0
1884 NA NA 18:00:00 TS 24.33 -75.40 70 hurdat_atl 233 232 O____________O hurdat_atl AL041884 24.00 -75.00 HU 70 1 25.00 -76.20 HU 75 3 0
1884 NA NA 21:00:00 TS 24.49 -75.41 232 232 P____________P AL041884 24.18 -75.00 HU 75 1 25.11 -76.24 HU 77 3 353
1884 NA NA 1884-10-13 00:00:00 TS 24.67 -75.43 80 hurdat_atl 233 224 O____________O hurdat_atl AL041884 24.40 -75.00 HU 80 1 25.20 -76.30 HU 80 4 353
1884 NA NA 03:00:00 TS 24.88 -75.46 226 226 P____________P AL041884 24.69 -75.00 HU 80 1 25.25 -76.37 HU 80 4 355
1884 NA NA 06:00:00 TS 25.10 -75.47 80 hurdat_atl 231 231 O____________O hurdat_atl AL041884 25.00 -75.00 HU 80 1 25.30 -76.40 HU 80 4 3
1884 NA NA 09:00:00 TS 25.32 -75.44 248 248 P____________P AL041884 25.28 -75.00 HU 80 1 25.40 -76.33 HU 85 4 8
1884 NA NA 12:00:00 TS 25.50 -75.40 80 hurdat_atl 257 257 O____________O hurdat_atl AL041884 25.50 -75.00 HU 80 1 25.50 -76.20 HU 90 3 15
1884 NA NA 15:00:00 TS 25.61 -75.36 261 261 P____________P AL041884 25.64 -75.00 HU 80 1 25.54 -76.08 HU 95 2 29
1884 NA NA 18:00:00 TS 25.67 -75.30 80 hurdat_atl 275 275 O____________O hurdat_atl AL041884 25.70 -75.00 HU 80 1 25.60 -75.90 MH 100 2 49
1884 NA NA 21:00:00 TS 25.72 -75.22 284 284 P____________P AL041884 25.71 -75.00 HU 85 2 25.73 -75.65 MH 100 2 61
1884 NA NA 1884-10-14 00:00:00 TS 25.77 -75.10 90 hurdat_atl 297 297 O____________O hurdat_atl AL041884 25.70 -75.00 HU 90 2 25.90 -75.30 MH 100 3 66
1884 NA NA 03:00:00 TS 25.82 -74.96 307 307 P____________P AL041884 25.70 -75.03 HU 90 2 26.07 -74.83 MH 100 3 72
1884 NA NA 06:00:00 TS 25.87 -74.77 90 hurdat_atl 329 329 O____________O hurdat_atl AL041884 25.70 -75.00 HU 90 2 26.20 -74.30 MH 100 4 84
1884 NA NA 09:00:00 TS 25.87 -74.49 357 357 P____________P AL041884 25.69 -74.84 HU 90 2 26.22 -73.79 MH 100 5 90
1884 NA NA 12:00:00 TS 25.87 -74.17 90 hurdat_atl 385 385 O____________O hurdat_atl AL041884 25.70 -74.60 HU 90 2 26.20 -73.30 MH 100 5 89
1884 NA NA 15:00:00 TS 25.88 -73.89 412 412 P____________P AL041884 25.73 -74.42 HU 90 2 26.19 -72.84 MH 100 6 83
1884 NA NA 18:00:00 TS 25.93 -73.53 90 hurdat_atl 450 450 O____________O hurdat_atl AL041884 25.80 -74.10 HU 90 2 26.20 -72.40 MH 100 8 79
1884 NA NA 21:00:00 TS 26.04 -72.97 501 501 P____________P AL041884 25.94 -73.47 HU 85 2 26.25 -71.96 MH 100 11 77
1884 NA NA 1884-10-15 00:00:00 TS 26.17 -72.37 80 hurdat_atl 562 562 O____________O hurdat_atl AL041884 26.10 -72.80 HU 80 1 26.30 -71.50 MH 100 10 77
1884 NA NA 03:00:00 TS 26.26 -71.93 580 580 P____________P AL041884 26.24 -72.39 HU 80 1 26.31 -71.00 MH 100 8 76
1884 NA NA 06:00:00 TS 26.37 -71.50 80 hurdat_atl 600 600 O____________O hurdat_atl AL041884 26.40 -72.00 HU 80 1 26.30 -70.50 MH 100 9 75
1884 NA NA 09:00:00 TS 26.50 -70.96 626 626 P____________P AL041884 26.59 -71.41 HU 80 1 26.30 -70.05 MH 100 10 75
1884 NA NA 12:00:00 TS 26.63 -70.40 80 hurdat_atl 658 658 O____________O hurdat_atl AL041884 26.80 -70.80 HU 80 1 26.30 -69.60 MH 100 982 10 74
1884 NA NA 15:00:00 TS 26.76 -69.93 700 700 P____________P AL041884 27.00 -70.34 HU 80 1 26.29 -69.10 MH 100 972 9 72
1884 NA NA 18:00:00 TS 26.90 -69.47 80 hurdat_atl 729 729 O____________I hurdat_atl AL041884 27.20 -69.90 HU 80 1 26.30 -68.60 MH 100 963 9 71
1884 NA NA 21:00:00 TS 27.05 -68.96 773 773 P____________P AL041884 27.41 -69.36 HU 75 1 26.35 -68.15 MH 100 954 10 72
1884 NA NA 1884-10-16 00:00:00 TS 27.20 -68.43 70 hurdat_atl 816 816 O____________O hurdat_atl AL041884 27.60 -68.80 HU 70 1 26.40 -67.70 MH 100 945 9 75
1884 NA NA 03:00:00 TS 27.31 -67.93 855 855 P____________P AL041884 27.76 -68.29 HU 70 1 26.41 -67.21 MH 100 9 77
1884 NA NA 06:00:00 TS 27.40 -67.43 70 hurdat_atl 895 895 O____________O hurdat_atl AL041884 27.90 -67.80 HU 70 1 26.40 -66.70 MH 100 9 79
1884 NA NA 09:00:00 TS 27.48 -66.96 929 929 P____________P AL041884 28.06 -67.33 HU 70 1 26.33 -66.21 MH 92 9 77
1884 NA NA 12:00:00 TS 27.60 -66.43 70 hurdat_atl 966 966 O____________O hurdat_atl AL041884 28.20 -66.80 HU 70 1 26.40 -65.70 HU 85 11 73
1884 NA NA 15:00:00 TS 27.80 -65.82 1010 1010 P____________P AL041884 28.31 -66.15 HU 70 1 26.77 -65.16 HU 75 12 69
1884 NA NA 18:00:00 TS 28.03 -65.13 70 hurdat_atl 1061 1061 O____________O hurdat_atl AL041884 28.40 -65.40 HU 70 1 27.30 -64.60 HU 65 13 69
1884 NA NA 21:00:00 TS 28.26 -64.45 1112 1112 P____________P AL041884 28.49 -64.59 HU 65 1 27.79 -64.19 HU 62 14 71
1884 NA NA 1884-10-17 00:00:00 TS 28.50 -63.63 60 hurdat_atl 1147 1147 O____________O hurdat_atl AL041884 28.60 -63.70 TS 60 0 28.30 -63.50 TS 60 18 73
1884 NA NA 03:00:00 TS 28.77 -62.52 1204 1204 P____________P AL041884 28.75 -62.75 TS 60 0 28.81 -62.07 TS 60 21 75
1884 NA NA 06:00:00 TS 29.03 -61.37 60 hurdat_atl 1259 1259 O____________O hurdat_atl AL041884 28.90 -61.80 TS 60 0 29.30 -60.50 TS 60 19 76
1884 NA NA 09:00:00 TS 29.23 -60.45 1317 1317 P____________P AL041884 29.01 -60.96 TS 60 0 29.69 -59.42 TS 60 17 73
1884 NA NA 12:00:00 TS 29.54 -59.46 60 hurdat_atl 1385 1385 O____________O hurdat_atl AL041884 29.10 -60.10 TS 60 0 30.20 -58.50 TS 60 21 65
1884 NA NA 15:00:00 TS 30.12 -58.30 1501 1501 P____________P AL041884 29.20 -59.10 TS 60 0 31.03 -57.50 TS 60 26 54
1884 NA NA 18:00:00 MX 31.10 -57.00 60 hurdat_atl 1561 1461 O____________O hurdat_atl AL041884 29.30 -58.00 TS 60 0 32.00 -56.50 EX 60 37 42
1884 NA NA 21:00:00 ET 32.84 -55.45 1464 1394 _____________P AL041884 TS -1 32.84 -55.45 EX 60 34 38
1884 NA NA 1884-10-18 00:00:00 ET 33.80 -54.50 1387 1290 _____________O -1 33.80 -54.50 EX 60 26 32
1884 NA NA 03:00:00 ET 35.04 -53.79 1290 1145 _____________P -1 35.04 -53.79 EX 60 28 22
1884 NA NA 06:00:00 ET 36.40 -53.20 1134 1001 _____________O -1 36.40 -53.20 EX 60 28 20
1884 NA NA 09:00:00 ET 37.70 -52.59 991 860 _____________P -1 37.70 -52.59 EX 60 28 20
1884 NA NA 12:00:00 ET 39.00 -52.00 850 724 _____________O -1 39.00 -52.00 EX 60 28 19
1884 NA NA 15:00:00 ET 40.30 -51.41 715 595 _____________P -1 40.30 -51.41 EX 60 28 19
1884 NA NA 18:00:00 ET 41.60 -50.80 587 _____________O -1 41.60 -50.80 EX 60 28 19